Comodoro Rivadavia, Argentina
Current Conditions -  °F | °C
As of 12:00 PM on Friday 19 Dec 2014 (Local Time) from SAVC Reporting Station
Scattered Clouds Scattered Clouds  
Wind Chill: 17°   Ceiling: Unl
Heat Index: 17°   Visibility: 6mi
Dew Point: -8°   Wind: 23mph
Humidity: 18%   Direction: 270°W
Pressure: 29.29"   Gusts: 37mph
Location:  45.86°S, 67.49°W
Report Text: SAVC 191500Z 27020G32KT 9999 FEW035 SCT040 17/M08 Q0992
Loading
Personal Weather Stations






























Interactive Weather Map New forecast layout! Learn more

10-Day Weather Forecast

Advertisements
Track Severe Weather on mobile